sensor_id;sensor_type;location;lat;lon;timestamp;pressure;altitude;pressure_sealevel;temperature;humidity
21433;BME280;18592;49.708;10.900;2023-05-09T00:01:44;99000.50;;;18.86;40.72
21433;BME280;18592;49.708;10.900;2023-05-09T00:03:47;98998.03;;;18.85;40.79
21433;BME280;18592;49.708;10.900;2023-05-09T00:05:50;98994.72;;;18.83;40.62
21433;BME280;18592;49.708;10.900;2023-05-09T00:07:51;98996.97;;;18.81;40.63
21433;BME280;18592;49.708;10.900;2023-05-09T00:09:53;99000.03;;;18.79;40.70
21433;BME280;18592;49.708;10.900;2023-05-09T00:12:00;98992.03;;;18.78;40.47
21433;BME280;18592;49.708;10.900;2023-05-09T00:14:01;98991.19;;;18.77;40.72
21433;BME280;18592;49.708;10.900;2023-05-09T00:16:03;98995.94;;;18.77;40.54
21433;BME280;18592;49.708;10.900;2023-05-09T00:18:10;98993.44;;;18.75;40.46
21433;BME280;18592;49.708;10.900;2023-05-09T00:20:12;98983.81;;;18.73;40.87
21433;BME280;18592;49.708;10.900;2023-05-09T00:22:18;98989.63;;;18.71;40.50
21433;BME280;18592;49.708;10.900;2023-05-09T00:24:22;98983.28;;;18.71;40.70
21433;BME280;18592;49.708;10.900;2023-05-09T00:26:24;98987.16;;;18.70;40.50
21433;BME280;18592;49.708;10.900;2023-05-09T00:28:26;98980.28;;;18.67;40.49
21433;BME280;18592;49.708;10.900;2023-05-09T00:30:28;98983.34;;;18.66;40.61
21433;BME280;18592;49.708;10.900;2023-05-09T00:32:30;98986.94;;;18.66;40.61
21433;BME280;18592;49.708;10.900;2023-05-09T00:34:32;98989.16;;;18.64;40.73
21433;BME280;18592;49.708;10.900;2023-05-09T00:36:36;98969.59;;;18.61;40.61
21433;BME280;18592;49.708;10.900;2023-05-09T00:38:40;98981.22;;;18.58;40.41
21433;BME280;18592;49.708;10.900;2023-05-09T00:40:42;98974.06;;;18.57;40.76
21433;BME280;18592;49.708;10.900;2023-05-09T00:42:46;98979.84;;;18.55;40.81
21433;BME280;18592;49.708;10.900;2023-05-09T00:44:48;98971.88;;;18.54;40.89
21433;BME280;18592;49.708;10.900;2023-05-09T00:46:50;98978.50;;;18.53;40.68
21433;BME280;18592;49.708;10.900;2023-05-09T00:48:57;98972.97;;;18.53;40.68
21433;BME280;18592;49.708;10.900;2023-05-09T00:51:05;98972.47;;;18.51;40.89
21433;BME280;18592;49.708;10.900;2023-05-09T00:53:08;98966.09;;;18.50;40.80
21433;BME280;18592;49.708;10.900;2023-05-09T00:55:10;98965.59;;;18.48;40.74
21433;BME280;18592;49.708;10.900;2023-05-09T00:57:12;98970.00;;;18.49;40.69
21433;BME280;18592;49.708;10.900;2023-05-09T00:59:14;98961.16;;;18.47;40.93
21433;BME280;18592;49.708;10.900;2023-05-09T01:01:20;98955.91;;;18.46;40.70
21433;BME280;18592;49.708;10.900;2023-05-09T01:03:25;98958.69;;;18.46;40.79
21433;BME280;18592;49.708;10.900;2023-05-09T01:05:55;98950.97;;;18.42;40.69
21433;BME280;18592;49.708;10.900;2023-05-09T01:08:19;98953.50;;;18.39;40.92
21433;BME280;18592;49.708;10.900;2023-05-09T01:10:36;98957.69;;;18.36;40.79
21433;BME280;18592;49.708;10.900;2023-05-09T01:12:56;98958.78;;;18.35;40.84
21433;BME280;18592;49.708;10.900;2023-05-09T01:17:40;98951.38;;;18.31;41.05
21433;BME280;18592;49.708;10.900;2023-05-09T01:19:58;98945.88;;;18.31;40.88
21433;BME280;18592;49.708;10.900;2023-05-09T01:22:06;98945.03;;;18.30;40.89
21433;BME280;18592;49.708;10.900;2023-05-09T01:24:24;98951.13;;;18.27;40.91
21433;BME280;18592;49.708;10.900;2023-05-09T01:28:59;98938.75;;;18.25;40.94
21433;BME280;18592;49.708;10.900;2023-05-09T01:31:07;98941.81;;;18.23;40.89
21433;BME280;18592;49.708;10.900;2023-05-09T01:33:15;98938.22;;;18.23;40.91
21433;BME280;18592;49.708;10.900;2023-05-09T01:35:19;98932.69;;;18.23;41.02
21433;BME280;18592;49.708;10.900;2023-05-09T01:37:32;98936.84;;;18.20;40.82
21433;BME280;18592;49.708;10.900;2023-05-09T01:39:38;98928.59;;;18.20;40.96
21433;BME280;18592;49.708;10.900;2023-05-09T01:41:41;98926.91;;;18.19;40.81
21433;BME280;18592;49.708;10.900;2023-05-09T01:43:44;98937.97;;;18.19;40.68
21433;BME280;18592;49.708;10.900;2023-05-09T01:45:48;98927.75;;;18.20;40.80
21433;BME280;18592;49.708;10.900;2023-05-09T01:47:52;98926.91;;;18.19;40.88
21433;BME280;18592;49.708;10.900;2023-05-09T01:49:57;98924.16;;;18.19;40.88
21433;BME280;18592;49.708;10.900;2023-05-09T01:52:09;98925.28;;;18.18;40.73
21433;BME280;18592;49.708;10.900;2023-05-09T01:54:12;98920.88;;;18.17;40.76
21433;BME280;18592;49.708;10.900;2023-05-09T01:56:15;98925.56;;;18.17;40.92
21433;BME280;18592;49.708;10.900;2023-05-09T01:58:19;98924.78;;;18.16;40.82
21433;BME280;18592;49.708;10.900;2023-05-09T02:00:25;98916.50;;;18.16;40.90
21433;BME280;18592;49.708;10.900;2023-05-09T02:02:28;98917.91;;;18.14;40.90
21433;BME280;18592;49.708;10.900;2023-05-09T02:04:31;98922.59;;;18.13;40.76
21433;BME280;18592;49.708;10.900;2023-05-09T02:06:34;98922.84;;;18.12;40.92
21433;BME280;18592;49.708;10.900;2023-05-09T02:08:37;98930.34;;;18.11;40.95
21433;BME280;18592;49.708;10.900;2023-05-09T02:10:40;98925.09;;;18.10;40.92
21433;BME280;18592;49.708;10.900;2023-05-09T02:12:45;98926.75;;;18.11;40.84
21433;BME280;18592;49.708;10.900;2023-05-09T02:14:46;98920.16;;;18.07;40.88
21433;BME280;18592;49.708;10.900;2023-05-09T02:16:48;98920.97;;;18.07;40.86
21433;BME280;18592;49.708;10.900;2023-05-09T02:18:50;98931.50;;;18.05;40.96
21433;BME280;18592;49.708;10.900;2023-05-09T02:20:52;98932.06;;;18.02;41.00
21433;BME280;18592;49.708;10.900;2023-05-09T02:22:54;98932.06;;;18.02;40.90
21433;BME280;18592;49.708;10.900;2023-05-09T02:24:55;98933.72;;;18.03;40.82
21433;BME280;18592;49.708;10.900;2023-05-09T02:26:57;98933.16;;;18.01;41.05
21433;BME280;18592;49.708;10.900;2023-05-09T02:29:00;98935.91;;;18.01;40.88
21433;BME280;18592;49.708;10.900;2023-05-09T02:31:04;98929.06;;;17.99;40.93
21433;BME280;18592;49.708;10.900;2023-05-09T02:33:09;98937.06;;;18.00;40.91
21433;BME280;18592;49.708;10.900;2023-05-09T02:35:16;98929.34;;;17.97;40.96
21433;BME280;18592;49.708;10.900;2023-05-09T02:37:19;98921.06;;;17.97;40.97
21433;BME280;18592;49.708;10.900;2023-05-09T02:39:24;98934.03;;;17.97;41.00
21433;BME280;18592;49.708;10.900;2023-05-09T02:41:28;98928.81;;;17.95;40.95
21433;BME280;18592;49.708;10.900;2023-05-09T02:43:31;98928.81;;;17.95;41.18
21433;BME280;18592;49.708;10.900;2023-05-09T02:45:33;98920.56;;;17.95;41.02
21433;BME280;18592;49.708;10.900;2023-05-09T02:47:36;98922.78;;;17.93;41.03
21433;BME280;18592;49.708;10.900;2023-05-09T02:49:38;98920.03;;;17.93;41.01
21433;BME280;18592;49.708;10.900;2023-05-09T02:51:40;98926.94;;;17.91;41.05
21433;BME280;18592;49.708;10.900;2023-05-09T02:53:43;98920.59;;;17.90;41.11
21433;BME280;18592;49.708;10.900;2023-05-09T02:55:45;98916.19;;;17.89;41.17
21433;BME280;18592;49.708;10.900;2023-05-09T02:57:47;98925.03;;;17.86;41.18
21433;BME280;18592;49.708;10.900;2023-05-09T03:00:03;98915.13;;;17.85;40.95
21433;BME280;18592;49.708;10.900;2023-05-09T03:02:04;98921.75;;;17.84;41.21
21433;BME280;18592;49.708;10.900;2023-05-09T03:04:07;98912.63;;;17.84;41.18
21433;BME280;18592;49.708;10.900;2023-05-09T03:06:11;98918.44;;;17.82;41.13
21433;BME280;18592;49.708;10.900;2023-05-09T03:08:14;98912.13;;;17.82;41.12
21433;BME280;18592;49.708;10.900;2023-05-09T03:10:17;98916.00;;;17.81;41.10
21433;BME280;18592;49.708;10.900;2023-05-09T03:12:21;98921.78;;;17.79;41.00
21433;BME280;18592;49.708;10.900;2023-05-09T03:14:28;98913.81;;;17.77;41.15
21433;BME280;18592;49.708;10.900;2023-05-09T03:16:29;98922.34;;;17.76;41.14
21433;BME280;18592;49.708;10.900;2023-05-09T03:18:32;98913.56;;;17.74;41.26
21433;BME280;18592;49.708;10.900;2023-05-09T03:20:35;98911.09;;;17.72;41.53
21433;BME280;18592;49.708;10.900;2023-05-09T03:22:37;98907.50;;;17.72;41.17
21433;BME280;18592;49.708;10.900;2023-05-09T03:24:42;98904.75;;;17.72;41.19
21433;BME280;18592;49.708;10.900;2023-05-09T03:26:44;98906.69;;;17.71;41.21
21433;BME280;18592;49.708;10.900;2023-05-09T03:28:45;98906.97;;;17.70;41.25
21433;BME280;18592;49.708;10.900;2023-05-09T03:30:48;98906.97;;;17.70;41.25
21433;BME280;18592;49.708;10.900;2023-05-09T03:32:53;98906.47;;;17.68;41.26
21433;BME280;18592;49.708;10.900;2023-05-09T03:34:55;98904.81;;;17.67;41.23
21433;BME280;18592;49.708;10.900;2023-05-09T03:37:00;98906.47;;;17.68;41.19
21433;BME280;18592;49.708;10.900;2023-05-09T03:39:03;98903.13;;;17.66;41.35
21433;BME280;18592;49.708;10.900;2023-05-09T03:41:04;98897.09;;;17.64;41.26
21433;BME280;18592;49.708;10.900;2023-05-09T03:43:06;98893.81;;;17.62;41.33
21433;BME280;18592;49.708;10.900;2023-05-09T03:45:10;98892.16;;;17.61;41.28
21433;BME280;18592;49.708;10.900;2023-05-09T03:47:13;98890.53;;;17.60;41.29
21433;BME280;18592;49.708;10.900;2023-05-09T03:49:14;98890.00;;;17.58;41.34
21433;BME280;18592;49.708;10.900;2023-05-09T03:51:17;98893.84;;;17.57;41.40
21433;BME280;18592;49.708;10.900;2023-05-09T03:53:18;98885.88;;;17.55;41.48
21433;BME280;18592;49.708;10.900;2023-05-09T03:55:25;98890.03;;;17.53;41.43
21433;BME280;18592;49.708;10.900;2023-05-09T03:57:28;98899.94;;;17.54;41.52
21433;BME280;18592;49.708;10.900;2023-05-09T03:59:30;98890.84;;;17.53;41.56
21433;BME280;18592;49.708;10.900;2023-05-09T04:01:33;98895.56;;;17.53;41.54
21433;BME280;18592;49.708;10.900;2023-05-09T04:03:36;98896.63;;;17.52;41.62
21433;BME280;18592;49.708;10.900;2023-05-09T04:05:39;98901.06;;;17.53;41.67
21433;BME280;18592;49.708;10.900;2023-05-09T04:07:46;98904.88;;;17.52;41.64
21433;BME280;18592;49.708;10.900;2023-05-09T04:09:49;98901.59;;;17.50;41.68
21433;BME280;18592;49.708;10.900;2023-05-09T04:11:51;98911.25;;;17.52;41.60
21433;BME280;18592;49.708;10.900;2023-05-09T04:13:53;98910.72;;;17.50;41.57
21433;BME280;18592;49.708;10.900;2023-05-09T04:15:59;98909.88;;;17.50;41.56
21433;BME280;18592;49.708;10.900;2023-05-09T04:18:04;98911.50;;;17.51;41.59
21433;BME280;18592;49.708;10.900;2023-05-09T04:20:10;98915.38;;;17.50;41.61
21433;BME280;18592;49.708;10.900;2023-05-09T04:22:13;98909.88;;;17.50;41.62
21433;BME280;18592;49.708;10.900;2023-05-09T04:24:14;98909.88;;;17.50;41.56
21433;BME280;18592;49.708;10.900;2023-05-09T04:26:18;98902.69;;;17.49;41.66
21433;BME280;18592;49.708;10.900;2023-05-09T04:28:27;98901.59;;;17.50;41.62
21433;BME280;18592;49.708;10.900;2023-05-09T04:30:29;98899.94;;;17.49;41.72
21433;BME280;18592;49.708;10.900;2023-05-09T04:32:32;98901.06;;;17.48;41.65
21433;BME280;18592;49.708;10.900;2023-05-09T04:34:34;98900.25;;;17.47;41.73
21433;BME280;18592;49.708;10.900;2023-05-09T04:36:42;98907.38;;;17.48;41.70
21433;BME280;18592;49.708;10.900;2023-05-09T04:38:43;98902.19;;;17.47;41.86
21433;BME280;18592;49.708;10.900;2023-05-09T04:40:48;98903.84;;;17.48;41.78
21433;BME280;18592;49.708;10.900;2023-05-09T04:42:50;98905.47;;;17.49;41.82
21433;BME280;18592;49.708;10.900;2023-05-09T04:44:54;98906.28;;;17.49;41.92
21433;BME280;18592;49.708;10.900;2023-05-09T04:46:56;98906.00;;;17.51;41.92
21433;BME280;18592;49.708;10.900;2023-05-09T04:48:58;98903.00;;;17.52;41.98
21433;BME280;18592;49.708;10.900;2023-05-09T04:51:00;98914.84;;;17.53;41.82
21433;BME280;18592;49.708;10.900;2023-05-09T04:53:01;98910.97;;;17.54;42.06
21433;BME280;18592;49.708;10.900;2023-05-09T04:55:04;98909.03;;;17.54;41.93
21433;BME280;18592;49.708;10.900;2023-05-09T04:57:11;98907.09;;;17.55;42.01
21433;BME280;18592;49.708;10.900;2023-05-09T04:59:22;98914.81;;;17.58;41.96
21433;BME280;18592;49.708;10.900;2023-05-09T05:01:24;98912.06;;;17.58;42.08
21433;BME280;18592;49.708;10.900;2023-05-09T05:03:34;98904.31;;;17.60;42.21
21433;BME280;18592;49.708;10.900;2023-05-09T05:05:36;98897.41;;;17.62;42.06
21433;BME280;18592;49.708;10.900;2023-05-09T05:07:39;98897.63;;;17.66;42.05
21433;BME280;18592;49.708;10.900;2023-05-09T05:09:41;98903.41;;;17.69;42.22
21433;BME280;18592;49.708;10.900;2023-05-09T05:11:43;98892.06;;;17.71;42.28
21433;BME280;18592;49.708;10.900;2023-05-09T05:13:59;98902.81;;;17.72;42.48
21433;BME280;18592;49.708;10.900;2023-05-09T05:16:00;98883.22;;;17.74;42.51
21433;BME280;18592;49.708;10.900;2023-05-09T05:18:02;98890.63;;;17.78;42.29
21433;BME280;18592;49.708;10.900;2023-05-09T05:20:10;98896.97;;;17.79;42.46
21433;BME280;18592;49.708;10.900;2023-05-09T05:22:17;98903.25;;;17.85;42.36
21433;BME280;18592;49.708;10.900;2023-05-09T05:24:20;98899.09;;;17.87;42.50
21433;BME280;18592;49.708;10.900;2023-05-09T05:26:21;98899.63;;;17.89;42.56
21433;BME280;18592;49.708;10.900;2023-05-09T05:28:29;98893.84;;;17.91;42.52
21433;BME280;18592;49.708;10.900;2023-05-09T05:30:34;98897.94;;;17.93;42.51
21433;BME280;18592;49.708;10.900;2023-05-09T05:32:36;98891.03;;;17.96;42.54
21433;BME280;18592;49.708;10.900;2023-05-09T05:34:37;98895.94;;;17.99;42.44
21433;BME280;18592;49.708;10.900;2023-05-09T05:36:40;98886.56;;;18.00;42.65
21433;BME280;18592;49.708;10.900;2023-05-09T05:38:41;98889.03;;;18.01;42.54
21433;BME280;18592;49.708;10.900;2023-05-09T05:40:43;98884.06;;;18.03;42.63
21433;BME280;18592;49.708;10.900;2023-05-09T05:42:46;98887.03;;;18.07;42.58
21433;BME280;18592;49.708;10.900;2023-05-09T05:44:47;98883.72;;;18.10;42.76
21433;BME280;18592;49.708;10.900;2023-05-09T05:46:51;98881.47;;;18.12;42.73
21433;BME280;18592;49.708;10.900;2023-05-09T05:48:55;98880.63;;;18.16;42.66
21433;BME280;18592;49.708;10.900;2023-05-09T05:50:59;98879.44;;;18.22;42.71
21433;BME280;18592;49.708;10.900;2023-05-09T05:53:04;98881.03;;;18.28;42.73
21433;BME280;18592;49.708;10.900;2023-05-09T05:55:07;98878.72;;;18.35;42.75
21433;BME280;18592;49.708;10.900;2023-05-09T05:57:12;98878.91;;;18.44;42.53
21433;BME280;18592;49.708;10.900;2023-05-09T05:59:14;98879.09;;;18.53;42.60
21433;BME280;18592;49.708;10.900;2023-05-09T06:01:25;98889.81;;;18.59;42.78
21433;BME280;18592;49.708;10.900;2023-05-09T06:03:29;98873.69;;;18.66;42.66
21433;BME280;18592;49.708;10.900;2023-05-09T06:05:40;98878.25;;;18.76;42.73
21433;BME280;18592;49.708;10.900;2023-05-09T06:07:45;98874.31;;;18.82;42.85
21433;BME280;18592;49.708;10.900;2023-05-09T06:09:47;98872.00;;;18.89;42.78
21433;BME280;18592;49.708;10.900;2023-05-09T06:11:49;98864.75;;;18.93;42.69
21433;BME280;18592;49.708;10.900;2023-05-09T06:13:50;98864.69;;;18.98;42.72
21433;BME280;18592;49.708;10.900;2023-05-09T06:15:55;98859.09;;;19.03;42.63
21433;BME280;18592;49.708;10.900;2023-05-09T06:18:18;98863.44;;;19.09;42.50
21433;BME280;18592;49.708;10.900;2023-05-09T06:20:19;98862.22;;;19.15;42.63
21433;BME280;18592;49.708;10.900;2023-05-09T06:22:22;98864.63;;;19.22;42.54
21433;BME280;18592;49.708;10.900;2023-05-09T06:24:23;98872.00;;;19.26;42.48
21433;BME280;18592;49.708;10.900;2023-05-09T06:26:37;98858.94;;;19.32;42.31
21433;BME280;18592;49.708;10.900;2023-05-09T06:28:38;98855.53;;;19.40;42.39
21433;BME280;18592;49.708;10.900;2023-05-09T06:30:40;98851.25;;;19.47;42.61
21433;BME280;18592;49.708;10.900;2023-05-09T06:32:41;98849.44;;;19.56;42.62
21433;BME280;18592;49.708;10.900;2023-05-09T06:34:43;98847.31;;;19.67;42.76
21433;BME280;18592;49.708;10.900;2023-05-09T06:36:44;98845.19;;;19.78;42.87
21433;BME280;18592;49.708;10.900;2023-05-09T06:38:46;98841.09;;;19.89;42.79
21433;BME280;18592;49.708;10.900;2023-05-09T06:40:50;98833.75;;;19.98;42.37
21433;BME280;18592;49.708;10.900;2023-05-09T06:42:51;98835.81;;;20.06;42.40
21433;BME280;18592;49.708;10.900;2023-05-09T06:44:53;98839.00;;;20.13;42.43
21433;BME280;18592;49.708;10.900;2023-05-09T06:46:55;98835.00;;;20.19;42.12
21433;BME280;18592;49.708;10.900;2023-05-09T06:48:57;98829.38;;;20.24;42.02
21433;BME280;18592;49.708;10.900;2023-05-09T06:50:59;98835.97;;;20.28;42.32
21433;BME280;18592;49.708;10.900;2023-05-09T06:53:01;98836.16;;;20.32;41.83
21433;BME280;18592;49.708;10.900;2023-05-09T06:55:06;98828.06;;;20.35;41.91
21433;BME280;18592;49.708;10.900;2023-05-09T06:57:08;98827.47;;;20.38;42.02
21433;BME280;18592;49.708;10.900;2023-05-09T06:59:12;98827.97;;;20.40;42.09
21433;BME280;18592;49.708;10.900;2023-05-09T07:01:14;98819.03;;;20.43;41.97
21433;BME280;18592;49.708;10.900;2023-05-09T07:03:21;98815.13;;;20.44;41.92
21433;BME280;18592;49.708;10.900;2023-05-09T07:05:22;98817.59;;;20.46;41.43
21433;BME280;18592;49.708;10.900;2023-05-09T07:07:24;98813.69;;;20.47;41.52
21433;BME280;18592;49.708;10.900;2023-05-09T07:09:26;98814.22;;;20.49;41.52
21433;BME280;18592;49.708;10.900;2023-05-09T07:11:35;98813.28;;;20.53;41.69
21433;BME280;18592;49.708;10.900;2023-05-09T07:13:38;98806.50;;;20.59;42.10
21433;BME280;18592;49.708;10.900;2023-05-09T07:15:39;98794.19;;;20.65;42.04
21433;BME280;18592;49.708;10.900;2023-05-09T07:17:43;98797.06;;;20.74;42.22
21433;BME280;18592;49.708;10.900;2023-05-09T07:19:45;98801.53;;;20.83;42.25
21433;BME280;18592;49.708;10.900;2023-05-09T07:21:47;98794.94;;;20.93;42.24
21433;BME280;18592;49.708;10.900;2023-05-09T07:23:48;98802.41;;;21.06;42.33
21433;BME280;18592;49.708;10.900;2023-05-09T07:25:55;98793.22;;;21.19;42.40
21433;BME280;18592;49.708;10.900;2023-05-09T07:27:58;98803.13;;;21.34;42.55
21433;BME280;18592;49.708;10.900;2023-05-09T07:30:03;98795.53;;;21.48;42.15
21433;BME280;18592;49.708;10.900;2023-05-09T07:32:12;98801.22;;;21.65;42.43
21433;BME280;18592;49.708;10.900;2023-05-09T07:34:15;98794.75;;;21.78;42.32
21433;BME280;18592;49.708;10.900;2023-05-09T07:36:16;98788.03;;;21.93;42.29
21433;BME280;18592;49.708;10.900;2023-05-09T07:38:18;98786.78;;;22.07;42.50
21433;BME280;18592;49.708;10.900;2023-05-09T07:40:20;98776.34;;;22.22;42.40
21433;BME280;18592;49.708;10.900;2023-05-09T07:42:21;98775.13;;;22.36;42.38
21433;BME280;18592;49.708;10.900;2023-05-09T07:44:23;98783.78;;;22.52;42.45
21433;BME280;18592;49.708;10.900;2023-05-09T07:46:25;98773.91;;;22.68;42.44
21433;BME280;18592;49.708;10.900;2023-05-09T07:48:32;98767.88;;;22.83;42.31
21433;BME280;18592;49.708;10.900;2023-05-09T07:50:33;98771.81;;;22.99;42.11
21433;BME280;18592;49.708;10.900;2023-05-09T07:52:38;98755.75;;;23.13;42.02
21433;BME280;18592;49.708;10.900;2023-05-09T07:54:40;98760.00;;;23.28;42.02
21433;BME280;18592;49.708;10.900;2023-05-09T07:56:41;98747.59;;;23.43;41.82
21433;BME280;18592;49.708;10.900;2023-05-09T07:58:43;98749.03;;;23.57;41.87
21433;BME280;18592;49.708;10.900;2023-05-09T08:00:44;98764.84;;;23.74;41.91
21433;BME280;18592;49.708;10.900;2023-05-09T08:02:46;98753.16;;;23.89;41.62
21433;BME280;18592;49.708;10.900;2023-05-09T08:04:48;98743.44;;;24.03;41.65
21433;BME280;18592;49.708;10.900;2023-05-09T08:06:49;98744.53;;;24.20;41.51
21433;BME280;18592;49.708;10.900;2023-05-09T08:08:51;98734.78;;;24.34;41.32
21433;BME280;18592;49.708;10.900;2023-05-09T08:10:53;98728.16;;;24.47;40.90
21433;BME280;18592;49.708;10.900;2023-05-09T08:12:55;98735.44;;;24.60;41.22
21433;BME280;18592;49.708;10.900;2023-05-09T08:14:59;98731.59;;;24.74;40.90
21433;BME280;18592;49.708;10.900;2023-05-09T08:17:01;98728.53;;;24.87;40.56
21433;BME280;18592;49.708;10.900;2023-05-09T08:19:05;98730.59;;;24.99;40.49
21433;BME280;18592;49.708;10.900;2023-05-09T08:21:09;98727.84;;;25.11;40.22
21433;BME280;18592;49.708;10.900;2023-05-09T08:23:11;98725.94;;;25.23;40.22
21433;BME280;18592;49.708;10.900;2023-05-09T08:25:12;98715.16;;;25.34;39.92
21433;BME280;18592;49.708;10.900;2023-05-09T08:27:17;98720.44;;;25.48;39.90
21433;BME280;18592;49.708;10.900;2023-05-09T08:29:21;98724.09;;;25.60;40.24
21433;BME280;18592;49.708;10.900;2023-05-09T08:31:25;98720.16;;;25.73;39.67
21433;BME280;18592;49.708;10.900;2023-05-09T08:33:27;98713.44;;;25.86;39.76
21433;BME280;18592;49.708;10.900;2023-05-09T08:35:28;98708.66;;;25.99;40.05
21433;BME280;18592;49.708;10.900;2023-05-09T08:37:31;98706.25;;;26.10;40.03
21433;BME280;18592;49.708;10.900;2023-05-09T08:39:32;98709.50;;;26.24;39.73
21433;BME280;18592;49.708;10.900;2023-05-09T08:41:37;98698.34;;;26.36;39.95
21433;BME280;18592;49.708;10.900;2023-05-09T08:43:40;98699.94;;;26.49;39.44
21433;BME280;18592;49.708;10.900;2023-05-09T08:45:45;98694.34;;;26.61;39.53
21433;BME280;18592;49.708;10.900;2023-05-09T08:47:51;98689.88;;;26.72;39.14
21433;BME280;18592;49.708;10.900;2023-05-09T08:49:56;98685.91;;;26.85;39.50
21433;BME280;18592;49.708;10.900;2023-05-09T08:52:01;98677.44;;;26.97;39.32
21433;BME280;18592;49.708;10.900;2023-05-09T08:54:05;98675.78;;;27.08;39.11
21433;BME280;18592;49.708;10.900;2023-05-09T08:56:11;98671.75;;;27.22;38.89
21433;BME280;18592;49.708;10.900;2023-05-09T08:58:13;98663.66;;;27.32;38.99
21433;BME280;18592;49.708;10.900;2023-05-09T09:00:19;98665.97;;;27.42;38.96
21433;BME280;18592;49.708;10.900;2023-05-09T09:02:22;98663.44;;;27.53;38.34
21433;BME280;18592;49.708;10.900;2023-05-09T09:04:23;98668.97;;;27.65;38.51
21433;BME280;18592;49.708;10.900;2023-05-09T09:06:27;98663.28;;;27.77;38.28
21433;BME280;18592;49.708;10.900;2023-05-09T09:08:30;98653.50;;;27.87;37.90
21433;BME280;18592;49.708;10.900;2023-05-09T09:10:32;98644.91;;;27.95;38.00
21433;BME280;18592;49.708;10.900;2023-05-09T09:12:35;98657.59;;;28.05;37.62
21433;BME280;18592;49.708;10.900;2023-05-09T09:14:41;98651.06;;;28.16;37.90
21433;BME280;18592;49.708;10.900;2023-05-09T09:16:47;98660.53;;;28.27;37.78
21433;BME280;18592;49.708;10.900;2023-05-09T09:18:54;98649.56;;;28.38;37.70
21433;BME280;18592;49.708;10.900;2023-05-09T09:21:05;98645.81;;;28.50;37.65
21433;BME280;18592;49.708;10.900;2023-05-09T09:23:08;98646.91;;;28.61;37.59
21433;BME280;18592;49.708;10.900;2023-05-09T09:25:12;98645.50;;;28.70;36.98
21433;BME280;18592;49.708;10.900;2023-05-09T09:27:16;98645.72;;;28.81;36.94
21433;BME280;18592;49.708;10.900;2023-05-09T09:29:19;98637.88;;;28.90;36.96
21433;BME280;18592;49.708;10.900;2023-05-09T09:31:25;98635.69;;;28.99;36.93
21433;BME280;18592;49.708;10.900;2023-05-09T09:33:30;98641.50;;;29.10;36.74
21433;BME280;18592;49.708;10.900;2023-05-09T09:35:37;98618.00;;;29.18;36.32
21433;BME280;18592;49.708;10.900;2023-05-09T09:37:39;98622.19;;;29.27;35.98
21433;BME280;18592;49.708;10.900;2023-05-09T09:39:52;98621.97;;;29.36;36.29
21433;BME280;18592;49.708;10.900;2023-05-09T09:42:08;98605.69;;;29.45;35.85
21433;BME280;18592;49.708;10.900;2023-05-09T09:44:15;98601.81;;;29.53;35.93
21433;BME280;18592;49.708;10.900;2023-05-09T09:46:17;98599.13;;;29.60;35.17
21433;BME280;18592;49.708;10.900;2023-05-09T09:48:23;98588.38;;;29.66;34.83
21433;BME280;18592;49.708;10.900;2023-05-09T09:50:25;98593.69;;;29.71;34.64
21433;BME280;18592;49.708;10.900;2023-05-09T09:52:27;98591.75;;;29.75;34.77
21433;BME280;18592;49.708;10.900;2023-05-09T09:54:30;98591.47;;;29.80;34.59
21433;BME280;18592;49.708;10.900;2023-05-09T09:56:41;98592.72;;;29.82;34.39
21433;BME280;18592;49.708;10.900;2023-05-09T09:58:43;98600.00;;;29.87;33.95
21433;BME280;18592;49.708;10.900;2023-05-09T10:01:03;98589.63;;;29.91;33.66
21433;BME280;18592;49.708;10.900;2023-05-09T10:03:13;98580.84;;;29.96;33.47
21433;BME280;18592;49.708;10.900;2023-05-09T10:05:26;98571.31;;;30.00;33.02
21433;BME280;18592;49.708;10.900;2023-05-09T10:07:32;98573.81;;;30.05;33.75
21433;BME280;18592;49.708;10.900;2023-05-09T10:09:35;98578.69;;;30.12;33.77
21433;BME280;18592;49.708;10.900;2023-05-09T10:11:38;98574.75;;;30.16;33.53
21433;BME280;18592;49.708;10.900;2023-05-09T10:13:49;98568.44;;;30.23;33.76
21433;BME280;18592;49.708;10.900;2023-05-09T10:15:50;98567.28;;;30.28;33.80
21433;BME280;18592;49.708;10.900;2023-05-09T10:17:59;98556.97;;;30.35;33.38
21433;BME280;18592;49.708;10.900;2023-05-09T10:20:04;98558.22;;;30.41;33.25
21433;BME280;18592;49.708;10.900;2023-05-09T10:22:08;98554.72;;;30.48;33.22
21433;BME280;18592;49.708;10.900;2023-05-09T10:24:13;98545.53;;;30.54;33.38
21433;BME280;18592;49.708;10.900;2023-05-09T10:26:22;98544.84;;;30.61;33.13
21433;BME280;18592;49.708;10.900;2023-05-09T10:28:31;98542.53;;;30.70;33.21
21433;BME280;18592;49.708;10.900;2023-05-09T10:30:35;98548.22;;;30.73;32.80
21433;BME280;18592;49.708;10.900;2023-05-09T10:32:46;98530.16;;;30.78;32.63
21433;BME280;18592;49.708;10.900;2023-05-09T10:34:52;98530.63;;;30.84;32.44
21433;BME280;18592;49.708;10.900;2023-05-09T10:36:55;98533.88;;;30.89;32.50
21433;BME280;18592;49.708;10.900;2023-05-09T10:38:58;98517.47;;;30.95;32.98
21433;BME280;18592;49.708;10.900;2023-05-09T10:41:04;98513.13;;;31.01;33.02
21433;BME280;18592;49.708;10.900;2023-05-09T10:43:09;98523.28;;;31.09;32.70
21433;BME280;18592;49.708;10.900;2023-05-09T10:45:11;98509.25;;;31.16;32.60
21433;BME280;18592;49.708;10.900;2023-05-09T10:47:14;98503.69;;;31.23;32.83
21433;BME280;18592;49.708;10.900;2023-05-09T10:49:16;98504.94;;;31.29;32.37
21433;BME280;18592;49.708;10.900;2023-05-09T10:51:22;98496.94;;;31.34;31.94
21433;BME280;18592;49.708;10.900;2023-05-09T10:55:50;98481.31;;;31.44;32.09
21433;BME280;18592;49.708;10.900;2023-05-09T10:57:55;98483.81;;;31.49;31.88